Washington Executive (W32)
Clinton, MD
Field Elevation: 249
Lat: 38°44.89N  Long: 76°55.97W
CTAF/Unicom Freq: 122.8000
   
    
Weather Advisories
4/23/2014 19:30 Z
Altimeter 29.84" Hg
Wind 326° @ 12 KT
Gusts 21 KT
Temperature 14° C (57° F)
Dewpoint -14° C (7° F)
Relative Humidity 13%
Density Altitude 285 feet
Condensation Altitude 13,382 feet
  Wind and Runways
Indicated Runway = 5
History
 
 
More Info
All DigiWx sites map
Weather Radar
NOAA Forecast
 
Airport IQ 5010
(HMIEM) Shock Trauma Ctr
(26N) Ocean City
 
about DigiWx
 
FAA Disclaimer: The data displayed is for advisory purposes only and is not to be used for flight planning or operations. For official data, please call (not available) to hear the current automated AWOS voice message.
  METAR W32 231930Z AUTO 33012G21KT 14/M14 A2984